Manakin Sabot, Virginia
Current Conditions -  °F | °C
As of 11:54 PM on Saturday 25 Oct 2014 (Local Time) from KOFP Reporting Station
Clear Clear  
Wind Chill: 14°   Ceiling: Unl
Heat Index: 14°   Visibility: 10mi
Dew Point:   Wind: 6mph
Humidity: 60%   Direction: 240°WSW
Pressure: 29.76"   Gusts: NA
Location:  37.65°N, 77.72°W
Report Text: KOFP 260354Z AUTO 24005KT 10SM CLR 14/07 A2976 RMK AO2 SLP078 T01440067
Loading
Personal Weather Stations






























Interactive Weather Map
Tropical Storm Tracking
New forecast layout! Learn more

10-Day Weather Forecast

Advertisements
Track Severe Weather on mobile